Jacksonville, FL (32229)

2:58 AM EST on February 13, 2016 (GMT -0500)
Oceanway | | Change Station
CLOSE
Current Station
Personal Weather Station
Location: Jacksonville, FL
Elevation: 26 ft
Nearby Weather Stations

Elev 26 ft 30.45 °N, 81.61 °W | Updated 32 seconds ago

Clear
Clear
55.9 °F
Feels Like 55.9 °F
N
0.0
Wind Variable Wind from West
Gusts 2.0 mph

Today
High -- | Low -- °F
--% Chance of Precip.
Yesterday
High -- | Low -- °F
Precip. -- in
Pressure 30.12 in
Visibility 10.0 miles
Clouds Clear
Dew Point 54 °F
Humidity 93%
Rainfall 0.00 in
Snow Depth Not available.
7:08 AM 6:12 PM
Waxing Crescent, 28% visible
METAR KCRG 130753Z AUTO 28007KT 10SM CLR 14/12 A3013 RMK AO2 SLP200 T01440122
Pressure 30.12 in
Visibility 10.0 miles
Clouds Clear
Dew Point 54 °F
Humidity 93%
Rainfall 0.00 in
Snow Depth Not available.
7:08 AM 6:12 PM
Waxing Crescent, 28% visible
METAR KCRG 130753Z AUTO 28007KT 10SM CLR 14/12 A3013 RMK AO2 SLP200 T01440122

10-Day Weather Forecast

Almanac

Astronomy

Feb. 13, 2016 Rise Set
Actual Time
Civil Twilight
Nautical Twilight
Astronomical Twilight
Moon
Length of Visible Light
Length of Day
Tomorrow will be .
, % of the Moon is Illuminated

Today's Extremes

State Highs State Lows

Community

WunderPhotos

Upload Photos

1,892,526 photos uploaded!

WunderBlog® & News

Nearby

Air Quality

  Air Quality AQ Index Pollutant
Not available.

Snow Depth

Station Depth Elevation

Earthquake Activity

City Distance Mag. Time & Date
Minimum magnitude displayed is 2.5.

Coastal Water Temperatures

Place Temperature

Stations

Nearby Weather Stations

Station Location Temp. Windchill Dew Point Humidity Wind Precip. Elev Updated Type
                   

Watches & Warnings

There are currently no watches in effect.